Time;durP1;ratioP1;P1;durP2;ratioP2;P2;SDS_P1;SDS_P2;PMS_P1;PMS_P2;Temp;Humidity;BMP_temperature;BMP_pressure;BME280_temperature;BME280_humidity;BME280_pressure;Samples;Min_cycle;Max_cycle;Signal;HPM_P1;HPM_P2
2021/03/28 00:01:47;;;;;;;4.00;1.60;;;3.90;99.90;;;;;;8364217;28;20032;-64
2021/03/28 00:05:49;;;;;;;5.07;2.03;;;3.80;99.90;;;;;;8362990;28;20391;-64
2021/03/28 00:09:54;;;;;;;4.13;1.55;;;3.90;99.90;;;;;;8363649;28;20061;-64
2021/03/28 00:13:57;;;;;;;7.22;1.77;;;3.80;99.90;;;;;;8363502;28;20403;-64
2021/03/28 00:18:18;;;;;;;5.47;1.60;;;3.90;99.90;;;;;;8363293;28;20029;-64
2021/03/28 00:22:47;;;;;;;3.10;1.60;;;4.00;99.90;;;;;;8362858;28;20613;-64
2021/03/28 00:27:07;;;;;;;2.83;1.38;;;4.20;99.90;;;;;;8359734;28;20548;-64
2021/03/28 00:31:28;;;;;;;4.37;1.80;;;4.20;99.90;;;;;;8363387;28;20029;-64
2021/03/28 00:35:51;;;;;;;2.22;1.30;;;4.10;99.90;;;;;;8362433;28;20033;-65
2021/03/28 00:39:56;;;;;;;2.85;1.25;;;4.10;99.90;;;;;;8362726;28;20551;-64
2021/03/28 00:44:12;;;;;;;4.07;1.63;;;4.20;99.90;;;;;;8362638;28;20075;-64
2021/03/28 00:48:21;;;;;;;2.45;1.38;;;4.20;99.90;;;;;;8362719;28;20410;-64
2021/03/28 00:52:27;;;;;;;3.33;1.40;;;4.30;99.90;;;;;;8361409;28;20090;-64
2021/03/28 00:56:38;;;;;;;3.92;1.67;;;4.10;99.90;;;;;;8362631;28;20059;-64
2021/03/28 01:00:57;;;;;;;3.83;1.80;;;4.10;99.90;;;;;;8361671;28;20706;-64
2021/03/28 01:05:00;;;;;;;4.30;1.63;;;4.00;99.90;;;;;;8362202;28;20013;-64
2021/03/28 01:09:32;;;;;;;3.25;1.30;;;4.10;99.90;;;;;;8362360;28;20053;-64
2021/03/28 01:13:51;;;;;;;;;;;4.00;99.90;;;;;;8361911;28;20029;-64
2021/03/28 01:18:01;;;;;;;2.17;1.23;;;3.80;99.90;;;;;;8333749;28;19921;-64
2021/03/28 01:22:11;;;;;;;;;;;3.90;99.90;;;;;;8328060;28;20449;-64
2021/03/28 01:26:21;;;;;;;5.13;1.60;;;3.90;99.90;;;;;;8332931;28;19974;-64
2021/03/28 01:30:40;;;;;;;3.53;1.80;;;3.90;99.90;;;;;;8330037;28;20121;-64
2021/03/28 01:35:09;;;;;;;3.53;1.50;;;4.10;99.90;;;;;;8329936;28;20037;-64
2021/03/28 01:39:38;;;;;;;3.80;1.50;;;4.20;99.90;;;;;;8329884;28;20109;-64
2021/03/28 01:44:24;;;;;;;2.45;1.38;;;4.20;99.90;;;;;;8331923;28;20022;-64
2021/03/28 01:48:49;;;;;;;2.47;1.42;;;4.20;99.90;;;;;;8325870;28;20495;-64
2021/03/28 01:53:14;;;;;;;3.53;1.50;;;4.10;99.90;;;;;;8357758;28;20403;-65
2021/03/28 01:57:34;;;;;;;2.17;1.15;;;4.20;99.90;;;;;;8357966;28;20514;-64
2021/03/28 02:01:46;;;;;;;3.97;1.20;;;4.10;99.90;;;;;;8359771;28;20056;-64
2021/03/28 02:05:52;;;;;;;3.15;1.50;;;4.10;99.90;;;;;;8360491;28;20021;-64
2021/03/28 02:10:05;;;;;;;4.70;1.27;;;4.10;99.90;;;;;;8327241;28;20439;-63
2021/03/28 02:14:14;;;;;;;2.75;1.40;;;4.10;99.90;;;;;;8324634;28;20083;-64
2021/03/28 02:18:44;;;;;;;2.88;1.40;;;4.00;99.90;;;;;;8328061;28;20377;-64
2021/03/28 02:23:08;;;;;;;2.13;1.23;;;4.00;99.90;;;;;;8326972;28;20025;-64
2021/03/28 02:27:36;;;;;;;5.63;1.73;;;4.00;99.90;;;;;;8346332;28;20028;-64
2021/03/28 02:32:14;;;;;;;3.70;1.40;;;4.00;99.90;;;;;;8359568;28;20021;-64
2021/03/28 02:36:26;;;;;;;2.35;1.20;;;4.20;99.90;;;;;;8356682;28;20045;-64
2021/03/28 02:41:04;;;;;;;5.72;1.35;;;4.20;99.90;;;;;;8359033;28;20056;-64
2021/03/28 02:45:22;;;;;;;4.22;1.65;;;4.00;99.90;;;;;;8358384;28;20100;-64
2021/03/28 02:49:56;;;;;;;6.10;1.45;;;4.10;99.90;;;;;;8358940;28;20025;-64
2021/03/28 02:54:13;;;;;;;4.15;1.50;;;4.00;99.90;;;;;;8358372;28;20116;-64
2021/03/28 02:58:28;;;;;;;3.38;1.45;;;3.80;99.90;;;;;;8358774;28;20025;-64
2021/03/28 03:03:06;;;;;;;2.78;1.20;;;3.80;99.90;;;;;;8358999;28;20581;-64
2021/03/28 03:07:24;;;;;;;5.85;1.67;;;3.90;99.90;;;;;;8359110;28;20021;-64
2021/03/28 03:11:34;;;;;;;4.03;1.60;;;4.00;99.90;;;;;;8365322;28;20111;-64
2021/03/28 03:15:36;;;;;;;3.70;2.23;;;4.10;99.90;;;;;;8365539;28;20017;-64
2021/03/28 03:19:56;;;;;;;5.10;2.42;;;4.00;99.90;;;;;;8365286;28;20283;-64
2021/03/28 03:24:11;;;;;;;2.97;1.80;;;3.90;99.90;;;;;;8364218;28;20396;-64
2021/03/28 03:28:28;;;;;;;5.32;1.83;;;3.70;99.90;;;;;;8364935;28;20079;-64
2021/03/28 03:32:56;;;;;;;7.25;1.73;;;4.30;99.90;;;;;;8345662;28;20037;-64
2021/03/28 03:37:02;;;;;;;3.55;1.48;;;3.90;99.90;;;;;;8333678;28;20025;-64
2021/03/28 03:41:07;;;;;;;6.95;1.60;;;3.70;99.90;;;;;;8334026;28;20017;-64
2021/03/28 03:45:25;;;;;;;5.68;1.70;;;3.60;99.90;;;;;;8332152;28;20026;-64
2021/03/28 03:49:38;;;;;;;2.85;1.40;;;3.70;99.90;;;;;;8335505;28;20040;-64
2021/03/28 03:54:02;;;;;;;5.18;1.40;;;3.50;99.90;;;;;;8334112;28;20029;-64
2021/03/28 03:58:40;;;;;;;4.70;1.52;;;3.60;99.90;;;;;;8334156;28;20061;-64
2021/03/28 04:03:05;;;;;;;3.65;1.40;;;3.50;99.90;;;;;;8330820;28;20064;-64
2021/03/28 04:07:22;;;;;;;3.10;1.40;;;3.40;99.90;;;;;;8332545;28;20037;-64
2021/03/28 04:11:39;;;;;;;3.90;1.48;;;3.30;99.90;;;;;;8330755;28;20035;-64
2021/03/28 04:16:03;;;;;;;5.05;1.70;;;3.50;99.90;;;;;;8330831;28;20123;-64
2021/03/28 04:20:14;;;;;;;3.15;1.50;;;3.40;99.90;;;;;;8333263;28;20029;-64
2021/03/28 04:24:45;;;;;;;3.10;1.58;;;3.00;99.90;;;;;;8328599;28;20476;-64
2021/03/28 04:28:45;;;;;;;3.28;1.02;;;2.80;99.90;;;;;;8332858;28;20045;-64
2021/03/28 04:32:57;;;;;;;3.95;1.50;;;2.70;99.90;;;;;;8330245;28;20033;-64
2021/03/28 04:37:00;;;;;;;2.97;1.60;;;2.40;99.90;;;;;;8332489;28;20037;-64
2021/03/28 04:41:28;;;;;;;5.22;2.15;;;2.40;99.90;;;;;;8330299;28;20452;-64
2021/03/28 04:46:06;;;;;;;4.63;1.80;;;2.40;99.90;;;;;;8329597;28;20782;-64
2021/03/28 04:50:42;;;;;;;6.18;1.90;;;2.20;99.90;;;;;;8329832;28;20643;-64
2021/03/28 04:55:01;;;;;;;2.90;1.60;;;2.00;99.90;;;;;;8330097;28;20017;-64
2021/03/28 04:59:10;;;;;;;3.58;2.05;;;2.20;99.90;;;;;;8328624;28;20084;-64
2021/03/28 05:03:49;;;;;;;3.03;2.00;;;2.20;99.90;;;;;;8331008;28;20419;-64
2021/03/28 05:08:09;;;;;;;5.00;1.70;;;2.20;99.90;;;;;;8328715;28;20033;-64
2021/03/28 05:12:44;;;;;;;1.92;1.48;;;1.80;99.90;;;;;;8343006;28;20072;-64
2021/03/28 05:17:10;;;;;;;4.82;2.28;;;2.00;99.90;;;;;;8336716;28;20495;-64
2021/03/28 05:21:47;;;;;;;6.10;2.45;;;1.90;99.90;;;;;;8338046;28;20032;-64
2021/03/28 05:26:17;;;;;;;6.93;2.40;;;1.70;99.90;;;;;;8337285;28;20025;-63
2021/03/28 05:30:46;;;;;;;2.35;1.30;;;1.80;99.90;;;;;;8328192;28;20030;-63
2021/03/28 05:35:26;;;;;;;4.80;1.80;;;2.00;99.90;;;;;;8312929;28;20411;-63
2021/03/28 05:39:57;;;;;;;8.35;2.08;;;2.30;99.90;;;;;;8335086;28;20033;-63
2021/03/28 05:44:17;;;;;;;6.60;2.13;;;2.30;99.90;;;;;;8325159;28;20022;-63
2021/03/28 05:48:36;;;;;;;3.30;1.90;;;2.40;99.90;;;;;;8324425;28;20045;-63
2021/03/28 05:53:03;;;;;;;5.82;2.00;;;2.60;99.90;;;;;;8325313;28;20025;-63
2021/03/28 05:57:41;;;;;;;3.97;1.40;;;2.70;99.90;;;;;;8325559;28;20035;-63
2021/03/28 06:02:00;;;;;;;3.08;2.13;;;3.00;99.90;;;;;;8327179;28;20041;-64
2021/03/28 06:06:13;;;;;;;2.88;1.90;;;3.20;99.90;;;;;;8335599;28;20116;-64
2021/03/28 06:10:33;;;;;;;2.90;1.85;;;3.40;99.90;;;;;;8326652;28;20052;-64
2021/03/28 06:14:48;;;;;;;6.72;2.85;;;3.80;99.90;;;;;;8330764;28;20492;-63
2021/03/28 06:19:16;;;;;;;5.30;2.90;;;4.00;99.90;;;;;;8331956;28;20064;-64
2021/03/28 06:23:52;;;;;;;7.70;2.72;;;4.10;99.90;;;;;;8325312;28;20029;-64
2021/03/28 06:27:56;;;;;;;6.65;2.40;;;4.10;99.90;;;;;;8334927;28;20503;-64
2021/03/28 06:32:32;;;;;;;5.60;2.22;;;4.20;99.90;;;;;;8323954;28;20109;-64
2021/03/28 06:36:41;;;;;;;8.63;2.70;;;4.40;99.90;;;;;;8328095;28;20095;-64
2021/03/28 06:41:18;;;;;;;6.00;3.00;;;4.50;99.90;;;;;;8326165;28;20057;-64
2021/03/28 06:45:45;;;;;;;6.05;3.08;;;4.60;99.90;;;;;;8323820;28;20017;-64
2021/03/28 06:49:56;;;;;;;8.88;2.50;;;4.70;99.90;;;;;;8325152;28;20071;-64
2021/03/28 06:54:40;;;;;;;6.50;2.22;;;4.80;99.90;;;;;;8323653;28;20104;-64
2021/03/28 06:58:54;;;;;;;4.13;2.00;;;5.20;99.90;;;;;;8326934;28;20361;-63
2021/03/28 07:03:13;;;;;;;7.97;2.40;;;5.20;99.90;;;;;;8323279;28;20026;-63
2021/03/28 07:07:38;;;;;;;8.63;2.17;;;5.30;99.90;;;;;;8338047;28;20569;-63
2021/03/28 07:11:52;;;;;;;5.90;2.38;;;5.30;99.90;;;;;;8324048;28;20542;-63
2021/03/28 07:16:27;;;;;;;4.93;2.28;;;5.40;99.90;;;;;;8323036;28;20024;-63
2021/03/28 07:20:54;;;;;;;7.50;2.22;;;5.50;99.90;;;;;;8325257;28;20071;-62
2021/03/28 07:25:23;;;;;;;6.63;2.45;;;5.80;99.90;;;;;;8322906;28;20038;-63
2021/03/28 07:29:52;;;;;;;4.47;2.25;;;6.30;99.90;;;;;;8322838;28;20637;-64
2021/03/28 07:33:58;;;;;;;5.82;2.40;;;6.70;99.90;;;;;;8321952;28;20128;-63
2021/03/28 07:38:24;;;;;;;6.18;2.10;;;7.00;99.90;;;;;;8324328;28;20427;-63
2021/03/28 07:42:42;;;;;;;5.35;2.25;;;7.10;99.90;;;;;;8323474;28;20079;-64
2021/03/28 07:47:15;;;;;;;6.57;2.10;;;7.60;99.90;;;;;;8321638;28;20025;-63
2021/03/28 07:51:43;;;;;;;5.45;2.30;;;7.80;99.90;;;;;;8323867;28;20021;-64
2021/03/28 07:56:14;;;;;;;5.57;2.10;;;8.30;99.90;;;;;;8327293;28;20075;-63
2021/03/28 08:00:33;;;;;;;8.25;2.13;;;8.70;99.90;;;;;;8329269;28;20084;-63
2021/03/28 08:04:41;;;;;;;3.08;1.40;;;8.80;99.90;;;;;;8328064;28;20029;-63
2021/03/28 08:09:21;;;;;;;4.05;1.80;;;9.20;99.90;;;;;;8330097;28;20040;-63
2021/03/28 08:13:47;;;;;;;5.82;1.60;;;9.70;99.90;;;;;;8329988;28;20025;-63
2021/03/28 08:18:14;;;;;;;4.82;1.55;;;10.10;99.90;;;;;;8327133;28;20018;-63
2021/03/28 08:22:56;;;;;;;8.95;1.85;;;10.30;99.90;;;;;;8326921;28;20462;-63
2021/03/28 08:27:03;;;;;;;;;;;10.50;99.90;;;;;;8322372;28;20050;-63
2021/03/28 08:31:15;;;;;;;3.88;1.35;;;10.70;99.90;;;;;;8331626;28;19905;-64
2021/03/28 08:35:30;;;;;;;7.38;1.50;;;10.80;99.90;;;;;;8330142;28;20562;-63
2021/03/28 08:40:04;;;;;;;4.57;1.40;;;10.90;99.90;;;;;;8330571;28;20072;-63
2021/03/28 08:44:31;;;;;;;3.97;1.27;;;10.50;99.90;;;;;;8327620;28;20025;-63
2021/03/28 08:48:32;;;;;;;5.38;1.00;;;10.70;99.90;;;;;;8330428;28;20029;-63
2021/03/28 08:52:47;;;;;;;5.78;1.13;;;10.80;98.40;;;;;;8328575;28;20484;-64
2021/03/28 08:57:06;;;;;;;5.35;1.48;;;10.90;98.00;;;;;;8329601;28;20491;-63
2021/03/28 09:01:18;;;;;;;4.45;1.20;;;11.10;96.90;;;;;;8328373;28;20084;-63
2021/03/28 09:05:31;;;;;;;3.65;1.27;;;10.80;96.30;;;;;;8337393;28;20029;-63
2021/03/28 09:09:52;;;;;;;4.57;1.73;;;10.90;95.70;;;;;;8328159;28;20030;-62
2021/03/28 09:14:04;;;;;;;4.03;1.15;;;10.90;96.70;;;;;;8327572;28;20025;-64
2021/03/28 09:18:10;;;;;;;5.15;1.10;;;11.00;97.10;;;;;;8329363;28;20511;-63
2021/03/28 09:22:30;;;;;;;3.22;1.00;;;11.20;94.50;;;;;;8327761;28;20032;-63
2021/03/28 09:26:39;;;;;;;5.25;1.42;;;11.40;93.10;;;;;;8328244;28;20487;-64
2021/03/28 09:30:54;;;;;;;5.68;1.67;;;11.50;91.70;;;;;;8327303;28;20438;-63
2021/03/28 09:35:32;;;;;;;5.15;1.40;;;11.70;95.10;;;;;;8323919;28;20518;-63
2021/03/28 09:40:05;;;;;;;10.45;2.08;;;12.10;90.90;;;;;;8328373;28;20451;-63
2021/03/28 09:44:21;;;;;;;2.72;1.02;;;12.20;92.00;;;;;;8324433;28;21421;-62
2021/03/28 09:48:44;;;;;;;6.13;1.30;;;11.60;89.90;;;;;;8329714;28;20453;-64
2021/03/28 09:52:56;;;;;;;7.32;1.40;;;11.00;99.90;;;;;;8326767;28;20036;-64
2021/03/28 09:57:13;;;;;;;5.63;1.30;;;11.50;92.70;;;;;;8331529;28;20078;-64
2021/03/28 10:01:32;;;;;;;4.07;1.52;;;12.10;95.70;;;;;;8360599;28;20036;-64
2021/03/28 10:05:34;;;;;;;7.07;1.70;;;12.60;93.60;;;;;;8329636;28;20514;-64
2021/03/28 10:09:38;;;;;;;4.72;1.40;;;12.60;92.80;;;;;;8329935;28;20029;-64
2021/03/28 10:13:59;;;;;;;2.88;1.00;;;12.60;90.10;;;;;;8327376;28;20029;-62
2021/03/28 10:18:38;;;;;;;3.13;1.20;;;12.50;86.80;;;;;;8327832;28;20037;-63
2021/03/28 10:23:02;;;;;;;5.28;1.70;;;12.20;89.00;;;;;;8317839;28;21524;-63
2021/03/28 10:27:21;;;;;;;3.75;1.20;;;12.00;90.40;;;;;;8318682;28;20139;-63
2021/03/28 10:31:56;;;;;;;6.28;1.38;;;12.40;92.00;;;;;;8321523;28;20033;-63
2021/03/28 10:36:30;;;;;;;5.07;1.58;;;13.20;87.50;;;;;;8319031;28;20110;-63
2021/03/28 10:40:53;;;;;;;4.10;1.23;;;13.20;82.80;;;;;;8305856;28;20034;-62
2021/03/28 10:45:32;;;;;;;3.85;1.63;;;13.20;82.60;;;;;;8310163;28;20120;-63
2021/03/28 10:50:10;;;;;;;4.45;1.23;;;12.80;82.50;;;;;;8321541;28;20022;-63
2021/03/28 10:54:49;;;;;;;3.63;1.30;;;13.50;80.90;;;;;;8321037;28;20785;-63
2021/03/28 10:59:13;;;;;;;5.40;1.40;;;13.60;79.90;;;;;;8291038;28;20029;-63
2021/03/28 11:03:39;;;;;;;3.30;1.50;;;13.70;82.60;;;;;;8316046;28;20021;-63
2021/03/28 11:08:06;;;;;;;3.65;1.42;;;15.50;75.10;;;;;;8317687;28;20021;-63
2021/03/28 11:12:16;;;;;;;3.03;1.45;;;19.20;76.30;;;;;;8307340;28;20041;-63
2021/03/28 11:16:53;;;;;;;4.07;1.50;;;20.80;51.40;;;;;;8315404;28;20028;-63
2021/03/28 11:21:19;;;;;;;3.70;1.48;;;21.60;49.30;;;;;;8315868;28;20654;-63
2021/03/28 11:25:21;;;;;;;3.88;1.42;;;22.60;41.80;;;;;;8317017;28;20025;-63
2021/03/28 11:29:52;;;;;;;3.33;1.55;;;21.90;43.10;;;;;;8328476;28;20055;-63
2021/03/28 11:34:12;;;;;;;3.80;1.50;;;23.20;41.10;;;;;;8338276;28;20361;-64
2021/03/28 11:38:18;;;;;;;3.33;1.52;;;23.10;39.70;;;;;;8328761;28;20515;-63
2021/03/28 11:42:23;;;;;;;7.13;2.08;;;22.80;40.50;;;;;;8332569;28;20026;-63
2021/03/28 11:46:27;;;;;;;3.90;1.52;;;22.80;40.50;;;;;;8329884;28;20025;-63
2021/03/28 11:50:33;;;;;;;5.82;1.67;;;24.80;38.40;;;;;;8327523;28;20101;-64
2021/03/28 11:54:33;;;;;;;4.80;1.48;;;26.10;35.30;;;;;;8326735;28;20025;-63
2021/03/28 11:58:37;;;;;;;4.90;1.58;;;25.70;35.70;;;;;;8336370;28;20030;-63
2021/03/28 12:02:37;;;;;;;2.47;1.35;;;24.40;37.10;;;;;;8327482;28;20028;-64
2021/03/28 12:06:48;;;;;;;2.80;1.30;;;24.80;36.40;;;;;;8328446;28;20056;-64
2021/03/28 12:10:50;;;;;;;3.83;1.52;;;24.10;37.70;;;;;;8330511;28;20032;-64
2021/03/28 12:14:52;;;;;;;4.35;1.50;;;23.50;38.60;;;;;;8329996;28;20104;-63
2021/03/28 12:18:56;;;;;;;5.38;1.70;;;23.70;38.70;;;;;;8330721;28;20033;-64
2021/03/28 12:23:00;;;;;;;4.45;1.60;;;24.30;37.50;;;;;;8327837;28;20112;-63
2021/03/28 12:27:17;;;;;;;3.08;1.60;;;24.60;38.70;;;;;;8328748;28;20025;-65
2021/03/28 12:31:41;;;;;;;4.53;1.50;;;24.50;36.80;;;;;;8328031;28;20033;-63
2021/03/28 12:36:18;;;;;;;4.85;1.60;;;25.70;35.30;;;;;;8329711;28;20056;-63
2021/03/28 12:40:34;;;;;;;2.42;1.35;;;25.70;35.00;;;;;;8277439;28;20408;-63
2021/03/28 12:44:36;;;;;;;3.00;1.40;;;;;;;;;;8327327;28;20052;-64
2021/03/28 12:48:38;;;;;;;3.90;1.80;;;26.60;56.20;;;;;;8329040;28;20554;-64
2021/03/28 12:53:23;;;;;;;5.70;1.85;;;25.90;34.70;;;;;;8325794;28;20769;-64
2021/03/28 12:57:34;;;;;;;4.05;1.70;;;24.90;39.70;;;;;;8326630;28;20032;-65
2021/03/28 13:01:36;;;;;;;3.53;1.80;;;24.90;54.30;;;;;;8331746;28;20109;-65
2021/03/28 13:05:38;;;;;;;5.60;1.67;;;;;;;;;;8330183;28;20036;-64
2021/03/28 13:09:40;;;;;;;6.32;1.90;;;26.30;57.50;;;;;;8329447;28;20036;-64
2021/03/28 13:13:46;;;;;;;4.72;1.40;;;27.70;33.80;;;;;;8328280;28;20033;-64
2021/03/28 13:17:50;;;;;;;3.90;2.00;;;29.70;32.60;;;;;;8330951;28;20022;-64
2021/03/28 13:21:58;;;;;;;3.17;1.80;;;28.50;31.70;;;;;;8333721;28;20018;-65
2021/03/28 13:26:11;;;;;;;2.42;1.50;;;;;;;;;;8327992;28;20061;-64
2021/03/28 13:30:36;;;;;;;4.32;1.90;;;28.40;31.70;;;;;;8326666;28;20044;-65
2021/03/28 13:34:51;;;;;;;2.42;1.50;;;30.20;30.10;;;;;;8326295;28;20033;-64
2021/03/28 13:39:06;;;;;;;3.17;1.90;;;29.10;30.00;;;;;;8325862;28;20029;-64
2021/03/28 13:43:22;;;;;;;3.58;1.70;;;26.80;33.10;;;;;;8319359;28;20022;-64
2021/03/28 13:47:43;;;;;;;3.03;1.50;;;27.20;36.20;;;;;;8326679;28;20018;-64
2021/03/28 13:52:05;;;;;;;3.63;1.63;;;25.90;33.40;;;;;;8325439;28;20032;-64
2021/03/28 13:56:23;;;;;;;4.07;1.55;;;26.90;32.90;;;;;;8327364;28;20033;-64
2021/03/28 14:00:34;;;;;;;4.50;1.80;;;27.50;36.80;;;;;;8325064;28;20639;-65
2021/03/28 14:04:50;;;;;;;3.30;1.30;;;27.90;32.00;;;;;;8323970;28;20009;-65
2021/03/28 14:08:55;;;;;;;2.83;1.67;;;28.70;30.70;;;;;;8333080;28;20108;-65
2021/03/28 14:13:12;;;;;;;1.95;1.42;;;27.30;29.90;;;;;;8319269;28;20151;-64
2021/03/28 14:17:33;;;;;;;3.60;1.30;;;26.60;30.80;;;;;;8313267;28;20040;-64
2021/03/28 14:21:37;;;;;;;5.03;1.95;;;27.90;30.60;;;;;;8314546;28;20128;-64
2021/03/28 14:25:42;;;;;;;3.92;1.60;;;;;;;;;;8313968;28;20025;-64
2021/03/28 14:29:57;;;;;;;3.20;1.50;;;26.80;29.00;;;;;;8315319;28;20572;-65
2021/03/28 14:34:10;;;;;;;2.95;1.48;;;26.20;31.70;;;;;;8320379;28;20044;-64
2021/03/28 14:38:33;;;;;;;6.07;3.95;;;25.70;33.00;;;;;;8305087;28;20087;-63
2021/03/28 14:42:50;;;;;;;5.07;1.65;;;26.30;31.30;;;;;;8315081;28;20396;-65
2021/03/28 14:47:04;;;;;;;3.72;1.70;;;26.70;30.90;;;;;;8315336;28;20014;-65
2021/03/28 14:51:43;;;;;;;3.45;1.70;;;27.50;30.40;;;;;;8315544;28;20408;-64
2021/03/28 14:56:20;;;;;;;10.25;7.63;;;26.60;31.20;;;;;;8230203;28;20118;-63
2021/03/28 15:00:30;;;;;;;5.30;2.15;;;27.10;31.10;;;;;;8270358;28;20037;-64
2021/03/28 15:04:40;;;;;;;;;;;27.60;30.40;;;;;;8327038;28;20026;-64
2021/03/28 15:08:52;;;;;;;3.28;1.55;;;26.80;30.70;;;;;;8319321;28;19909;-64
2021/03/28 15:13:04;;;;;;;2.00;1.52;;;26.10;31.30;;;;;;8322671;28;20029;-64
2021/03/28 15:17:18;;;;;;;4.35;1.58;;;24.70;32.40;;;;;;8328345;28;20025;-64
2021/03/28 15:21:28;;;;;;;3.45;1.65;;;23.70;35.20;;;;;;8322769;28;20021;-64
2021/03/28 15:25:31;;;;;;;4.68;1.90;;;;;;;;;;8326392;28;20030;-65
2021/03/28 15:29:47;;;;;;;5.72;1.73;;;22.90;34.20;;;;;;8326959;28;20593;-64
2021/03/28 15:33:59;;;;;;;5.25;2.50;;;22.60;35.40;;;;;;8329433;28;20558;-65
2021/03/28 15:38:15;;;;;;;2.42;1.80;;;22.40;35.80;;;;;;8323124;28;20490;-64
2021/03/28 15:42:36;;;;;;;5.85;3.20;;;21.50;36.20;;;;;;8329343;28;20021;-64
2021/03/28 15:47:02;;;;;;;4.43;2.95;;;21.00;37.20;;;;;;8327658;28;20038;-64
2021/03/28 15:51:06;;;;;;;3.33;1.92;;;20.30;37.80;;;;;;8322745;28;20112;-64
2021/03/28 15:55:25;;;;;;;2.95;1.45;;;19.50;39.20;;;;;;8321846;28;20128;-63
2021/03/28 15:59:44;;;;;;;3.65;2.03;;;19.40;40.30;;;;;;8322159;28;20219;-64
2021/03/28 16:04:19;;;;;;;3.20;2.22;;;20.00;40.20;;;;;;8315733;28;20014;-64
2021/03/28 16:08:57;;;;;;;5.13;4.05;;;21.90;37.80;;;;;;8318268;28;20040;-64
2021/03/28 16:13:21;;;;;;;8.98;6.18;;;20.80;39.50;;;;;;8329643;28;20045;-64
2021/03/28 16:18:05;;;;;;;9.35;4.60;;;20.80;39.70;;;;;;8329999;28;20427;-63
2021/03/28 16:22:23;;;;;;;2.05;1.30;;;21.20;37.80;;;;;;8330898;28;20692;-63
2021/03/28 16:26:38;;;;;;;5.25;2.10;;;20.60;36.30;;;;;;8329647;28;20029;-63
2021/03/28 16:30:46;;;;;;;5.57;2.00;;;20.10;36.80;;;;;;8330759;28;20068;-64
2021/03/28 16:35:07;;;;;;;7.97;5.03;;;19.90;37.00;;;;;;8330152;28;20519;-64
2021/03/28 16:39:13;;;;;;;13.73;8.80;;;19.60;37.10;;;;;;8323749;28;20164;-63
2021/03/28 16:43:33;;;;;;;5.68;3.60;;;19.60;37.30;;;;;;8317874;28;20063;-64
2021/03/28 16:47:52;;;;;;;16.57;11.17;;;18.80;38.80;;;;;;8325944;28;20025;-64
2021/03/28 16:52:00;;;;;;;18.05;10.82;;;18.50;39.60;;;;;;8319663;28;20728;-63
2021/03/28 16:56:02;;;;;;;6.57;3.70;;;18.00;39.80;;;;;;8315043;28;20136;-63
2021/03/28 17:00:14;;;;;;;4.45;3.10;;;17.30;41.20;;;;;;8319322;28;20025;-65
2021/03/28 17:04:14;;;;;;;5.03;2.40;;;16.60;43.40;;;;;;8317576;28;20056;-64
2021/03/28 17:08:27;;;;;;;4.15;2.22;;;16.00;46.20;;;;;;8318440;28;20025;-64
2021/03/28 17:12:30;;;;;;;6.60;2.17;;;15.50;46.70;;;;;;8317738;28;20503;-65
2021/03/28 17:16:49;;;;;;;3.13;1.40;;;15.30;48.00;;;;;;8317810;28;20022;-65
2021/03/28 17:21:10;;;;;;;3.00;1.50;;;14.80;52.70;;;;;;8313474;28;20117;-67
2021/03/28 17:25:42;;;;;;;3.33;1.50;;;14.50;51.60;;;;;;8307050;28;20412;-65
2021/03/28 17:29:43;;;;;;;2.22;1.17;;;14.20;53.50;;;;;;8319921;28;20029;-66
2021/03/28 17:33:43;;;;;;;5.32;1.77;;;13.70;54.20;;;;;;8330838;28;20091;-65
2021/03/28 17:37:57;;;;;;;2.35;1.42;;;13.40;56.20;;;;;;8322371;28;20045;-65
2021/03/28 17:42:00;;;;;;;1.95;1.33;;;12.90;56.80;;;;;;8319426;28;20061;-65
2021/03/28 17:46:01;;;;;;;3.47;1.30;;;12.70;56.30;;;;;;8326163;28;20025;-65
2021/03/28 17:50:03;;;;;;;4.60;1.70;;;12.50;56.30;;;;;;8323284;28;20091;-65
2021/03/28 17:54:25;;;;;;;1.98;1.40;;;12.10;57.40;;;;;;8321240;28;20739;-65
2021/03/28 17:58:41;;;;;;;3.50;1.60;;;11.80;60.20;;;;;;8320217;28;20041;-66
2021/03/28 18:02:43;;;;;;;3.67;1.70;;;11.50;63.00;;;;;;8320441;28;20113;-65
2021/03/28 18:06:43;;;;;;;2.70;1.55;;;11.40;61.40;;;;;;8320139;28;20111;-65
2021/03/28 18:10:49;;;;;;;4.05;1.80;;;11.30;60.20;;;;;;8317881;28;20030;-65
2021/03/28 18:14:50;;;;;;;3.03;2.17;;;11.30;61.00;;;;;;8320332;28;20029;-64
2021/03/28 18:18:57;;;;;;;4.07;1.83;;;11.00;64.20;;;;;;8320764;28;20053;-64
2021/03/28 18:22:59;;;;;;;3.85;2.22;;;10.60;66.30;;;;;;8311359;28;20706;-63
2021/03/28 18:27:05;;;;;;;5.72;1.95;;;10.40;67.30;;;;;;8312641;28;20036;-64
2021/03/28 18:31:12;;;;;;;6.65;1.80;;;10.70;64.60;;;;;;8307822;28;20037;-64
2021/03/28 18:35:19;;;;;;;4.07;2.22;;;10.40;67.40;;;;;;8309082;28;20060;-63
2021/03/28 18:39:37;;;;;;;5.18;2.22;;;10.20;69.60;;;;;;8306292;28;20033;-64
2021/03/28 18:43:38;;;;;;;3.58;2.30;;;9.90;70.90;;;;;;8308466;28;20520;-64
2021/03/28 18:47:39;;;;;;;10.57;2.67;;;9.70;73.20;;;;;;8301279;28;20026;-64
2021/03/28 18:51:40;;;;;;;5.97;2.88;;;9.50;76.10;;;;;;8302448;28;20056;-64
2021/03/28 18:55:53;;;;;;;4.45;2.42;;;9.50;76.30;;;;;;8297178;28;20037;-64
2021/03/28 19:00:30;;;;;;;8.27;3.13;;;9.40;78.50;;;;;;8295931;28;20040;-64
2021/03/28 19:04:36;;;;;;;6.95;2.97;;;9.20;79.50;;;;;;8274992;28;20037;-64
2021/03/28 19:08:46;;;;;;;6.30;2.95;;;9.10;81.00;;;;;;8319452;28;20024;-63
2021/03/28 19:12:48;;;;;;;5.15;3.00;;;9.10;81.60;;;;;;8301193;28;20072;-64
2021/03/28 19:16:49;;;;;;;4.20;2.00;;;9.00;82.00;;;;;;8300140;28;20514;-63
2021/03/28 19:21:03;;;;;;;11.60;3.35;;;9.20;83.10;;;;;;8303820;28;20061;-64
2021/03/28 19:25:05;;;;;;;8.57;3.95;;;8.80;86.10;;;;;;8290275;28;20036;-63
2021/03/28 19:29:13;;;;;;;10.40;3.97;;;8.30;90.30;;;;;;8305785;28;20060;-64
2021/03/28 19:33:36;;;;;;;7.75;4.50;;;8.10;91.80;;;;;;8302070;28;20025;-64
2021/03/28 19:37:47;;;;;;;10.90;4.70;;;8.00;93.60;;;;;;8303572;28;20121;-64
2021/03/28 19:41:59;;;;;;;8.95;5.57;;;7.80;95.10;;;;;;8296788;28;20038;-66
2021/03/28 19:50:36;;;;;;;13.25;7.32;;;7.80;99.30;;;;;;8319905;28;20099;-66
2021/03/28 19:54:43;;;;;;;13.82;7.28;;;7.90;99.90;;;;;;8325628;28;20017;-65
2021/03/28 19:58:45;;;;;;;11.35;6.25;;;7.50;99.90;;;;;;8332752;28;20038;-65
2021/03/28 20:02:54;;;;;;;10.75;6.32;;;7.30;99.90;;;;;;8315690;28;20036;-65
2021/03/28 20:06:54;;;;;;;13.45;6.10;;;7.20;99.90;;;;;;8337003;28;20026;-64
2021/03/28 20:11:05;;;;;;;11.10;6.68;;;7.10;99.90;;;;;;8324790;28;20060;-64
2021/03/28 20:15:06;;;;;;;;;;;7.30;99.90;;;;;;8323201;28;20052;-63
2021/03/28 20:19:08;;;;;;;13.85;7.40;;;7.10;99.90;;;;;;8326116;28;19913;-64
2021/03/28 20:23:10;;;;;;;11.70;6.55;;;7.10;99.90;;;;;;8325161;28;20033;-64
2021/03/28 20:27:16;;;;;;;11.70;7.18;;;7.00;99.90;;;;;;8322121;28;20045;-63
2021/03/28 20:31:18;;;;;;;11.60;7.10;;;6.80;99.90;;;;;;8322199;28;20037;-63
2021/03/28 20:35:19;;;;;;;12.68;7.45;;;6.70;99.90;;;;;;8319826;28;20560;-63
2021/03/28 20:39:22;;;;;;;8.73;5.40;;;6.70;99.90;;;;;;8323837;28;20025;-63
2021/03/28 20:43:30;;;;;;;9.02;5.13;;;6.80;99.90;;;;;;8306710;28;20057;-63
2021/03/28 20:47:38;;;;;;;7.55;4.10;;;6.40;99.90;;;;;;8331865;28;20395;-64
2021/03/28 20:51:41;;;;;;;6.60;3.17;;;6.30;99.90;;;;;;8341477;28;20511;-63
2021/03/28 20:55:42;;;;;;;3.75;2.30;;;6.10;99.90;;;;;;8346577;22;20132;-68
2021/03/28 20:59:43;;;;;;;8.10;3.17;;;5.90;99.90;;;;;;8320099;28;20079;-68
2021/03/28 21:03:50;;;;;;;8.02;4.43;;;5.70;99.90;;;;;;8328480;28;20053;-68
2021/03/28 21:07:58;;;;;;;9.18;5.10;;;5.60;99.90;;;;;;8328880;28;20018;-67
2021/03/28 21:12:01;;;;;;;9.07;5.65;;;5.50;99.90;;;;;;8328229;28;20072;-68
2021/03/28 21:16:04;;;;;;;13.18;8.38;;;5.50;99.90;;;;;;8328795;28;20103;-68
2021/03/28 21:20:09;;;;;;;10.13;6.18;;;5.60;99.90;;;;;;8323004;28;20048;-68
2021/03/28 21:24:10;;;;;;;18.80;8.80;;;5.60;99.90;;;;;;8314413;28;20013;-67
2021/03/28 21:28:18;;;;;;;11.45;6.80;;;5.80;99.90;;;;;;8325694;28;20060;-68
2021/03/28 21:32:19;;;;;;;9.77;4.97;;;5.70;99.90;;;;;;8327324;28;20045;-67
2021/03/28 21:36:21;;;;;;;8.77;5.07;;;5.70;99.90;;;;;;8327338;28;20467;-69
2021/03/28 21:40:22;;;;;;;6.82;4.32;;;5.60;99.90;;;;;;8327266;28;20057;-68
2021/03/28 21:44:30;;;;;;;9.55;4.43;;;5.60;99.90;;;;;;8325744;28;20044;-68
2021/03/28 21:48:31;;;;;;;9.98;3.75;;;5.60;99.90;;;;;;8325840;28;20495;-67
2021/03/28 21:52:37;;;;;;;7.72;3.90;;;5.70;99.90;;;;;;8326335;28;20040;-68
2021/03/28 21:56:40;;;;;;;6.90;4.22;;;5.70;99.90;;;;;;8327186;28;20029;-68
2021/03/28 22:00:42;;;;;;;8.07;3.90;;;5.70;99.90;;;;;;8310934;28;20026;-68
2021/03/28 22:04:43;;;;;;;8.43;4.60;;;5.60;99.90;;;;;;8322872;28;20017;-68
2021/03/28 22:08:47;;;;;;;9.63;4.25;;;5.70;99.90;;;;;;8310074;28;20079;-68
2021/03/28 22:12:48;;;;;;;9.98;5.00;;;5.70;99.90;;;;;;8325924;28;20080;-68
2021/03/28 22:16:59;;;;;;;8.77;4.00;;;5.90;99.90;;;;;;8312356;28;20030;-67
2021/03/28 22:21:04;;;;;;;6.40;4.03;;;5.90;99.90;;;;;;8291983;28;20087;-67
2021/03/28 22:25:05;;;;;;;8.10;3.88;;;6.00;99.90;;;;;;8310937;28;20437;-67
2021/03/28 22:29:09;;;;;;;7.90;4.15;;;5.90;99.90;;;;;;8315957;28;20377;-67